createdAt,value
2022-08-16T00:01:24.334Z,28.64
2022-08-16T00:03:53.472Z,28.58
2022-08-16T00:06:22.495Z,28.35
2022-08-16T00:08:50.194Z,28.78
2022-08-16T00:11:21.557Z,28.72
2022-08-16T00:13:53.726Z,29.12
2022-08-16T00:17:00.617Z,28.84
2022-08-16T00:19:28.412Z,29.19
2022-08-16T00:22:12.863Z,29.11
2022-08-16T00:24:44.987Z,29.06
2022-08-16T00:27:14.953Z,29.20
2022-08-16T00:29:42.627Z,29.52
2022-08-16T00:32:11.230Z,29.92
2022-08-16T00:34:44.273Z,29.69
2022-08-16T00:37:24.072Z,29.57
2022-08-16T00:39:58.234Z,29.92
2022-08-16T00:42:41.252Z,30.03
2022-08-16T00:45:25.318Z,29.95
2022-08-16T00:47:53.638Z,30.38
2022-08-16T00:50:36.457Z,30.12
2022-08-16T00:53:06.927Z,30.39
2022-08-16T00:55:38.445Z,30.59
2022-08-16T00:58:12.886Z,30.70
2022-08-16T01:00:45.713Z,30.91
2022-08-16T01:03:31.754Z,31.14
2022-08-16T01:06:32.571Z,30.85
2022-08-16T01:08:55.247Z,31.04
2022-08-16T01:11:28.165Z,31.17
2022-08-16T01:14:06.201Z,31.54
2022-08-16T01:16:34.881Z,31.50
2022-08-16T01:19:20.901Z,31.45
2022-08-16T01:22:46.776Z,31.48
2022-08-16T01:25:03.516Z,31.89
2022-08-16T01:27:39.108Z,31.96
2022-08-16T01:30:20.260Z,31.93
2022-08-16T01:33:02.488Z,32.43
2022-08-16T01:35:45.547Z,31.99
2022-08-16T01:38:30.393Z,32.33
2022-08-16T01:41:03.205Z,31.89
2022-08-16T01:43:33.985Z,32.26
2022-08-16T01:46:29.801Z,32.18
2022-08-16T01:49:10.126Z,32.26
2022-08-16T01:51:41.428Z,32.26
2022-08-16T01:54:13.142Z,32.26
2022-08-16T01:56:50.571Z,32.16
2022-08-16T01:59:21.301Z,32.18
2022-08-16T02:01:52.699Z,32.14
2022-08-16T02:04:49.250Z,32.16
2022-08-16T02:07:23.671Z,32.12
2022-08-16T02:09:56.935Z,32.11
2022-08-16T02:12:40.137Z,32.15
2022-08-16T02:15:27.411Z,32.17
2022-08-16T02:18:01.090Z,31.93
2022-08-16T02:20:35.815Z,32.16
2022-08-16T02:23:07.677Z,32.09
2022-08-16T02:25:51.897Z,31.59
2022-08-16T02:28:23.732Z,31.62
2022-08-16T02:30:53.445Z,31.60
2022-08-16T02:33:24.848Z,31.61
2022-08-16T02:36:47.833Z,32.03
2022-08-16T02:39:02.721Z,31.77
2022-08-16T02:41:32.143Z,32.03
2022-08-16T02:44:06.731Z,31.80
2022-08-16T02:46:35.064Z,31.84
2022-08-16T02:49:05.547Z,31.88
2022-08-16T02:51:36.042Z,31.76
2022-08-16T02:54:05.027Z,31.88
2022-08-16T02:56:33.964Z,31.84
2022-08-16T02:59:01.503Z,31.95
2022-08-16T03:01:37.149Z,31.95
2022-08-16T03:04:29.170Z,31.78
2022-08-16T03:06:59.560Z,31.46
2022-08-16T03:09:54.021Z,31.65
2022-08-16T03:12:30.442Z,31.25
2022-08-16T03:15:08.216Z,31.45
2022-08-16T03:17:53.365Z,31.43
2022-08-16T03:20:31.904Z,31.24
2022-08-16T03:23:02.708Z,31.17
2022-08-16T03:25:41.063Z,31.38
2022-08-16T03:28:17.267Z,31.28
2022-08-16T03:30:48.788Z,31.21
2022-08-16T03:33:17.547Z,31.06
2022-08-16T03:35:57.115Z,31.05
2022-08-16T03:38:33.498Z,31.04
2022-08-16T03:41:17.090Z,31.04
2022-08-16T03:43:56.441Z,30.88
2022-08-16T03:46:45.054Z,30.79
2022-08-16T03:49:20.231Z,30.92
2022-08-16T03:51:52.687Z,30.87
2022-08-16T03:54:24.436Z,30.91
2022-08-16T03:56:56.702Z,30.58
2022-08-16T03:59:24.904Z,30.50
2022-08-16T04:01:53.785Z,30.74
2022-08-16T04:04:32.563Z,30.57
2022-08-16T04:07:05.644Z,30.55
2022-08-16T04:09:38.305Z,30.46
2022-08-16T04:12:11.368Z,30.51
2022-08-16T04:14:58.357Z,30.38
2022-08-16T04:17:26.899Z,30.72
2022-08-16T04:19:58.342Z,30.37
2022-08-16T04:22:28.101Z,30.24
2022-08-16T04:25:00.880Z,30.37
2022-08-16T04:27:34.479Z,30.21
2022-08-16T04:30:10.848Z,30.63
2022-08-16T04:32:49.125Z,30.81
2022-08-16T04:35:21.071Z,30.80
2022-08-16T04:37:53.856Z,31.22
2022-08-16T04:40:28.105Z,31.23
2022-08-16T04:43:00.776Z,31.23
2022-08-16T04:45:35.967Z,31.27
2022-08-16T04:48:28.549Z,31.40
2022-08-16T04:51:11.617Z,30.81
2022-08-16T04:53:50.260Z,31.12
2022-08-16T04:56:20.264Z,31.08
2022-08-16T04:58:50.140Z,30.63
2022-08-16T05:01:20.685Z,30.57
2022-08-16T05:04:01.114Z,30.06
2022-08-16T05:06:42.119Z,30.02
2022-08-16T05:09:23.122Z,30.07
2022-08-16T05:11:57.570Z,29.84
2022-08-16T05:14:45.316Z,29.96
2022-08-16T05:17:24.594Z,29.83
2022-08-16T05:19:58.382Z,29.77
2022-08-16T05:22:39.790Z,29.61
2022-08-16T05:25:16.023Z,29.68
2022-08-16T05:27:48.337Z,29.35
2022-08-16T05:30:34.320Z,29.37
2022-08-16T05:33:06.278Z,29.17
2022-08-16T05:35:36.682Z,29.17
2022-08-16T05:38:32.697Z,29.03
2022-08-16T05:41:03.637Z,28.92
2022-08-16T05:43:43.611Z,28.43
2022-08-16T05:46:29.820Z,28.77
2022-08-16T05:49:22.545Z,28.87
2022-08-16T05:51:55.730Z,28.56
2022-08-16T05:54:26.947Z,28.90
2022-08-16T05:57:00.240Z,29.15
2022-08-16T05:59:29.187Z,29.15
2022-08-16T06:01:58.149Z,29.37
2022-08-16T06:04:34.985Z,29.42
2022-08-16T06:07:06.913Z,30.18
2022-08-16T06:09:43.490Z,30.55
2022-08-16T06:12:26.703Z,30.74
2022-08-16T06:15:01.996Z,31.32
2022-08-16T06:17:42.928Z,31.17
2022-08-16T06:20:24.072Z,31.23
2022-08-16T06:23:03.675Z,30.84
2022-08-16T06:25:53.191Z,30.60
2022-08-16T06:28:36.196Z,30.69
2022-08-16T06:31:09.883Z,30.69
2022-08-16T06:33:44.867Z,30.79
2022-08-16T06:36:17.987Z,31.10
2022-08-16T06:39:07.992Z,31.50
2022-08-16T06:42:00.664Z,31.21
2022-08-16T06:44:47.240Z,31.48
2022-08-16T06:47:53.412Z,32.02
2022-08-16T06:50:28.631Z,32.32
2022-08-16T06:53:06.809Z,32.91
2022-08-16T06:55:38.633Z,32.99
2022-08-16T06:58:22.912Z,33.13
2022-08-16T07:01:10.053Z,32.65
2022-08-16T07:03:55.240Z,32.58
2022-08-16T07:06:31.652Z,32.06
2022-08-16T07:09:09.552Z,32.31
2022-08-16T07:11:45.844Z,32.29
2022-08-16T07:14:24.222Z,31.79
2022-08-16T07:16:55.062Z,31.84
2022-08-16T07:19:22.537Z,31.38
2022-08-16T07:22:39.261Z,31.26
2022-08-16T07:24:59.626Z,30.69
2022-08-16T07:27:28.190Z,31.01
2022-08-16T07:29:56.643Z,30.72
2022-08-16T07:32:29.118Z,30.28
2022-08-16T07:34:59.535Z,30.12
2022-08-16T07:37:27.363Z,30.20
2022-08-16T07:40:10.887Z,29.73
2022-08-16T07:42:42.490Z,29.72
2022-08-16T07:45:10.589Z,29.73
2022-08-16T07:47:44.288Z,29.49
2022-08-16T07:50:57.263Z,29.67
2022-08-16T07:53:02.875Z,29.72
2022-08-16T07:55:46.022Z,28.81
2022-08-16T07:58:33.753Z,29.05
2022-08-16T08:01:10.125Z,28.86
2022-08-16T08:03:49.148Z,28.60
2022-08-16T08:06:25.287Z,28.86
2022-08-16T08:08:57.596Z,28.84
2022-08-16T08:11:29.778Z,28.27
2022-08-16T08:14:03.184Z,28.93
2022-08-16T08:16:35.861Z,28.66
2022-08-16T08:19:05.375Z,28.47
2022-08-16T08:21:59.978Z,28.41
2022-08-16T08:24:33.341Z,28.40
2022-08-16T08:27:03.831Z,28.08
2022-08-16T08:29:37.565Z,28.27
2022-08-16T08:33:02.208Z,28.44
2022-08-16T08:35:03.735Z,28.18
2022-08-16T08:37:55.507Z,27.80
2022-08-16T08:40:27.517Z,28.00
2022-08-16T08:43:11.959Z,27.65
2022-08-16T08:45:49.229Z,27.76
2022-08-16T08:48:33.899Z,27.52
2022-08-16T08:51:12.569Z,27.69
2022-08-16T08:53:57.462Z,27.29
2022-08-16T08:56:35.064Z,27.50
2022-08-16T08:59:28.581Z,27.39
2022-08-16T09:01:58.540Z,27.58
2022-08-16T09:04:31.493Z,27.52
2022-08-16T09:07:01.488Z,27.52
2022-08-16T09:09:33.636Z,27.70
2022-08-16T09:12:06.885Z,27.51
2022-08-16T09:14:58.905Z,27.58
2022-08-16T09:17:49.068Z,26.99
2022-08-16T09:20:23.923Z,27.02
2022-08-16T09:22:54.556Z,26.70
2022-08-16T09:25:35.221Z,26.85
2022-08-16T09:28:09.258Z,26.86
2022-08-16T09:30:44.996Z,26.52
2022-08-16T09:33:18.585Z,26.70
2022-08-16T09:35:53.383Z,26.57
2022-08-16T09:38:32.101Z,26.10
2022-08-16T09:41:06.414Z,26.06
2022-08-16T09:43:59.435Z,25.67
2022-08-16T09:46:46.009Z,25.91
2022-08-16T09:49:19.725Z,25.72
2022-08-16T09:51:53.709Z,24.87
2022-08-16T09:54:32.384Z,24.88
2022-08-16T09:57:00.901Z,24.98
2022-08-16T09:59:30.596Z,24.82
2022-08-16T10:01:58.980Z,24.42
2022-08-16T10:04:31.278Z,24.98
2022-08-16T10:07:12.026Z,24.42
2022-08-16T10:09:55.443Z,23.76
2022-08-16T10:12:46.960Z,23.77
2022-08-16T10:15:23.440Z,24.01
2022-08-16T10:17:59.976Z,23.45
2022-08-16T10:20:36.575Z,23.61
2022-08-16T10:23:09.934Z,23.90
2022-08-16T10:27:17.613Z,23.72
2022-08-16T10:28:40.102Z,23.44
2022-08-16T10:31:12.044Z,23.67
2022-08-16T10:33:45.200Z,24.52
2022-08-16T10:36:38.929Z,23.77
2022-08-16T10:39:02.602Z,23.89
2022-08-16T10:41:32.904Z,23.48
2022-08-16T10:44:00.932Z,23.58
2022-08-16T10:46:33.669Z,23.75
2022-08-16T10:49:07.171Z,23.26
2022-08-16T10:52:02.426Z,23.70
2022-08-16T10:54:29.743Z,23.48
2022-08-16T10:56:59.901Z,23.27
2022-08-16T10:59:32.763Z,23.46
2022-08-16T11:02:58.363Z,23.11
2022-08-16T11:05:10.793Z,22.90
2022-08-16T11:07:55.197Z,22.84
2022-08-16T11:13:57.470Z,23.06
2022-08-16T11:16:26.871Z,23.30
2022-08-16T11:19:05.750Z,23.17
2022-08-16T11:22:23.224Z,23.74
2022-08-16T11:24:41.702Z,23.47
2022-08-16T11:27:22.925Z,23.34
2022-08-16T11:29:55.159Z,24.01
2022-08-16T11:32:31.494Z,23.93
2022-08-16T11:35:14.830Z,24.92
2022-08-16T11:38:23.499Z,26.62
2022-08-16T11:40:52.260Z,27.69
2022-08-16T11:43:26.413Z,28.80
2022-08-16T11:45:56.570Z,26.90
2022-08-16T11:48:25.876Z,29.58
2022-08-16T11:50:54.218Z,29.60
2022-08-16T11:53:22.654Z,30.07
2022-08-16T11:55:54.914Z,30.24
2022-08-16T11:58:25.615Z,30.37
2022-08-16T12:00:55.917Z,30.97
2022-08-16T12:03:31.469Z,31.42
2022-08-16T12:06:11.103Z,31.54
2022-08-16T12:09:00.985Z,30.91
2022-08-16T12:11:31.607Z,30.83
2022-08-16T12:14:04.935Z,30.38
2022-08-16T12:16:34.883Z,30.41
2022-08-16T12:19:04.797Z,30.62
2022-08-16T12:21:57.723Z,30.82
2022-08-16T12:24:21.011Z,30.83
2022-08-16T12:26:49.531Z,30.96
2022-08-16T12:29:17.417Z,30.91
2022-08-16T12:32:26.415Z,31.07
2022-08-16T12:34:35.335Z,31.48
2022-08-16T12:37:10.412Z,31.02
2022-08-16T12:39:39.287Z,31.48
2022-08-16T12:42:20.715Z,31.74
2022-08-16T12:44:50.385Z,31.65
2022-08-16T12:47:36.727Z,31.33
2022-08-16T12:50:10.489Z,31.23
2022-08-16T12:52:44.504Z,31.16
2022-08-16T12:55:20.785Z,31.11
2022-08-16T12:57:58.426Z,30.59
2022-08-16T13:00:32.897Z,30.98
2022-08-16T13:03:03.561Z,30.59
2022-08-16T13:08:00.626Z,30.47
2022-08-16T13:10:37.782Z,29.68
2022-08-16T13:13:09.193Z,30.04
2022-08-16T13:15:56.822Z,29.53
2022-08-16T13:18:34.635Z,29.34
2022-08-16T13:21:08.365Z,29.31
2022-08-16T13:23:43.689Z,28.97
2022-08-16T13:26:12.995Z,28.35
2022-08-16T13:28:47.688Z,27.21
2022-08-16T13:34:10.081Z,27.84
2022-08-16T13:36:48.469Z,27.75
2022-08-16T13:39:17.631Z,27.58
2022-08-16T13:41:45.169Z,27.42
2022-08-16T13:44:21.968Z,27.51
2022-08-16T13:47:07.866Z,27.22
2022-08-16T13:49:35.240Z,27.04
2022-08-16T13:52:03.922Z,27.12
2022-08-16T13:54:34.963Z,27.06
2022-08-16T13:57:02.285Z,26.95
2022-08-16T13:59:29.887Z,27.17
2022-08-16T14:02:05.618Z,27.34
2022-08-16T14:04:36.450Z,27.08
2022-08-16T14:07:09.094Z,27.07
2022-08-16T14:09:38.011Z,26.98
2022-08-16T14:12:18.236Z,26.88
2022-08-16T14:14:46.798Z,27.22
2022-08-16T14:17:15.027Z,26.86
2022-08-16T14:19:46.285Z,26.88
2022-08-16T14:22:31.305Z,26.90
2022-08-16T14:25:03.257Z,27.35
2022-08-16T14:27:33.845Z,27.09
2022-08-16T14:30:01.362Z,27.43
2022-08-16T14:32:33.687Z,27.56
2022-08-16T14:35:09.115Z,27.54
2022-08-16T14:37:37.841Z,27.48
2022-08-16T14:40:07.233Z,27.52
2022-08-16T14:42:36.625Z,27.54
2022-08-16T14:45:06.263Z,27.78
2022-08-16T14:47:37.381Z,27.76
2022-08-16T14:50:09.504Z,27.73
2022-08-16T14:52:56.295Z,27.71
2022-08-16T14:55:26.273Z,27.82
2022-08-16T14:57:54.493Z,27.63
2022-08-16T15:00:33.255Z,27.90
2022-08-16T15:03:07.089Z,28.05
2022-08-16T15:05:38.755Z,27.98
2022-08-16T15:08:06.477Z,27.58
2022-08-16T15:10:37.297Z,27.54
2022-08-16T15:13:09.698Z,27.69
2022-08-16T15:15:38.748Z,27.96
2022-08-16T15:18:10.058Z,27.78
2022-08-16T15:20:41.572Z,27.75
2022-08-16T15:23:10.203Z,28.37
2022-08-16T15:25:44.163Z,28.54
2022-08-16T15:28:31.105Z,28.68
2022-08-16T15:31:03.836Z,29.27
2022-08-16T15:33:39.337Z,28.21
2022-08-16T15:36:14.384Z,31.04
2022-08-16T15:38:57.301Z,30.91
2022-08-16T15:41:42.970Z,31.38
2022-08-16T15:44:22.461Z,31.35
2022-08-16T15:46:55.713Z,31.35
2022-08-16T15:49:34.681Z,31.19
2022-08-16T15:52:16.397Z,30.90
2022-08-16T15:54:52.146Z,30.68
2022-08-16T15:57:21.284Z,30.83
2022-08-16T15:59:52.881Z,31.45
2022-08-16T16:02:31.064Z,31.22
2022-08-16T16:05:02.065Z,31.08
2022-08-16T16:07:33.323Z,30.60
2022-08-16T16:10:07.982Z,30.57
2022-08-16T16:12:51.145Z,30.69
2022-08-16T16:15:26.805Z,30.69
2022-08-16T16:17:57.729Z,31.63
2022-08-16T16:20:27.909Z,31.04
2022-08-16T16:23:00.453Z,30.62
2022-08-16T16:25:29.938Z,30.51
2022-08-16T16:28:00.152Z,30.25
2022-08-16T16:30:37.626Z,30.01
2022-08-16T16:34:11.800Z,36.63
2022-08-16T16:36:40.161Z,33.22
2022-08-16T16:39:16.292Z,36.58
2022-08-16T16:41:43.794Z,33.65
2022-08-16T16:44:18.250Z,32.57
2022-08-16T16:46:59.019Z,32.41
2022-08-16T16:49:26.568Z,32.25
2022-08-16T16:51:54.101Z,36.86
2022-08-16T16:54:35.975Z,35.56
2022-08-16T16:57:04.169Z,36.65
2022-08-16T16:59:31.631Z,37.13
2022-08-16T17:02:41.273Z,38.36
2022-08-16T17:04:48.948Z,40.62
2022-08-16T17:07:17.042Z,41.98
2022-08-16T17:09:47.101Z,41.99
2022-08-16T17:12:25.014Z,41.62
2022-08-16T17:14:57.484Z,41.50
2022-08-16T17:17:24.999Z,41.21
2022-08-16T17:19:54.360Z,42.86
2022-08-16T17:22:23.013Z,42.66
2022-08-16T17:24:53.365Z,42.28
2022-08-16T17:27:32.728Z,42.89
2022-08-16T17:30:17.485Z,43.89
2022-08-16T17:32:54.822Z,44.81
2022-08-16T17:35:33.999Z,44.50
2022-08-16T17:38:06.083Z,43.61
2022-08-16T17:40:55.468Z,43.54
2022-08-16T17:43:36.178Z,43.94
2022-08-16T17:46:05.734Z,43.11
2022-08-16T17:48:53.085Z,44.92
2022-08-16T17:51:21.053Z,46.21
2022-08-16T17:53:50.607Z,45.63
2022-08-16T17:56:18.153Z,46.27
2022-08-16T17:58:46.119Z,45.42
2022-08-16T18:01:13.775Z,45.86
2022-08-16T18:04:06.477Z,46.06
2022-08-16T18:06:29.973Z,46.02
2022-08-16T18:09:03.393Z,46.23
2022-08-16T18:11:35.470Z,47.13
2022-08-16T18:14:02.955Z,46.62
2022-08-16T18:16:30.292Z,46.86
2022-08-16T18:18:58.808Z,46.48
2022-08-16T18:21:44.297Z,46.20
2022-08-16T18:24:14.990Z,46.63
2022-08-16T18:26:45.229Z,47.14
2022-08-16T18:29:13.159Z,46.81
2022-08-16T18:31:40.596Z,46.88
2022-08-16T18:34:08.872Z,47.08
2022-08-16T18:36:38.098Z,47.70
2022-08-16T18:39:06.169Z,47.66
2022-08-16T18:41:37.220Z,46.98
2022-08-16T18:44:26.537Z,47.03
2022-08-16T18:46:55.697Z,45.97
2022-08-16T18:49:23.234Z,46.56
2022-08-16T18:51:51.037Z,46.84
2022-08-16T18:54:19.176Z,46.49
2022-08-16T18:56:56.117Z,47.64
2022-08-16T18:59:30.663Z,48.14
2022-08-16T19:02:04.557Z,48.30
2022-08-16T19:04:55.532Z,49.56
2022-08-16T19:07:30.619Z,49.16
2022-08-16T19:10:01.715Z,48.96
2022-08-16T19:12:38.296Z,49.22
2022-08-16T19:15:20.650Z,49.03
2022-08-16T19:17:48.449Z,48.33
2022-08-16T19:20:18.359Z,48.24
2022-08-16T19:25:46.904Z,48.60
2022-08-16T19:28:51.066Z,48.44
2022-08-16T19:34:16.209Z,47.46
2022-08-16T19:36:43.715Z,47.88
2022-08-16T19:39:14.480Z,47.59
2022-08-16T19:41:45.874Z,47.70
2022-08-16T19:44:13.817Z,47.48
2022-08-16T19:46:45.049Z,47.75
2022-08-16T19:49:16.319Z,47.67
2022-08-16T19:51:45.625Z,47.17
2022-08-16T19:54:12.913Z,47.04
2022-08-16T19:56:41.491Z,47.32
2022-08-16T19:59:39.932Z,46.60
2022-08-16T20:01:57.688Z,46.30
2022-08-16T20:04:27.763Z,46.69
2022-08-16T20:06:55.808Z,46.66
2022-08-16T20:09:24.279Z,47.23
2022-08-16T20:11:54.400Z,48.02
2022-08-16T20:14:25.473Z,48.34
2022-08-16T20:16:56.900Z,48.08
2022-08-16T20:19:27.542Z,48.43
2022-08-16T20:21:56.720Z,48.32
2022-08-16T20:24:39.676Z,48.72
2022-08-16T20:27:09.924Z,47.90
2022-08-16T20:29:39.965Z,47.78
2022-08-16T20:32:09.173Z,47.49
2022-08-16T20:34:36.491Z,46.71
2022-08-16T20:37:06.560Z,47.39
2022-08-16T20:39:35.143Z,47.32
2022-08-16T20:42:02.405Z,47.31
2022-08-16T20:44:29.642Z,46.96
2022-08-16T20:46:56.943Z,46.80
2022-08-16T20:49:24.194Z,46.70
2022-08-16T20:51:54.817Z,47.02
2022-08-16T20:54:23.730Z,46.30
2022-08-16T20:56:51.409Z,46.21
2022-08-16T20:59:18.824Z,46.66
2022-08-16T21:01:50.307Z,45.93
2022-08-16T21:04:21.827Z,46.32
2022-08-16T21:06:54.099Z,46.18
2022-08-16T21:09:27.555Z,46.11
2022-08-16T21:12:00.942Z,46.20
2022-08-16T21:14:33.481Z,45.44
2022-08-16T21:17:06.520Z,45.49
2022-08-16T21:19:34.521Z,45.44
2022-08-16T21:22:20.742Z,46.19
2022-08-16T21:24:49.709Z,46.24
2022-08-16T21:27:22.409Z,46.15
2022-08-16T21:29:54.753Z,45.94
2022-08-16T21:32:34.877Z,45.72
2022-08-16T21:35:16.227Z,44.83
2022-08-16T21:37:44.265Z,44.95
2022-08-16T21:40:34.426Z,44.63
2022-08-16T21:43:23.258Z,44.57
2022-08-16T21:45:54.135Z,44.50
2022-08-16T21:48:34.551Z,44.63
2022-08-16T21:51:05.819Z,44.66
2022-08-16T21:53:33.753Z,45.10
2022-08-16T21:56:02.404Z,45.08
2022-08-16T21:58:31.240Z,45.41
2022-08-16T22:00:59.033Z,45.48
2022-08-16T22:03:26.542Z,45.90
2022-08-16T22:06:11.586Z,46.14
2022-08-16T22:08:50.391Z,46.57
2022-08-16T22:11:23.770Z,46.18
2022-08-16T22:13:59.016Z,45.94
2022-08-16T22:16:34.120Z,45.87
2022-08-16T22:19:02.872Z,45.72
2022-08-16T22:21:31.883Z,45.77
2022-08-16T22:23:59.510Z,45.61
2022-08-16T22:26:30.880Z,46.07
2022-08-16T22:29:04.818Z,45.57
2022-08-16T22:31:33.370Z,46.08
2022-08-16T22:34:02.257Z,46.42
2022-08-16T22:36:31.278Z,46.69
2022-08-16T22:39:00.654Z,46.17
2022-08-16T22:41:31.942Z,46.16
2022-08-16T22:44:01.183Z,46.21
2022-08-16T22:46:28.854Z,46.78
2022-08-16T22:48:57.687Z,47.03
2022-08-16T22:51:27.217Z,47.14
2022-08-16T22:53:55.476Z,46.63
2022-08-16T22:56:23.918Z,46.89
2022-08-16T22:58:51.678Z,47.09
2022-08-16T23:01:22.012Z,47.26
2022-08-16T23:03:50.104Z,46.85
2022-08-16T23:06:18.382Z,46.47
2022-08-16T23:08:46.304Z,46.73
2022-08-16T23:11:22.966Z,46.57
2022-08-16T23:13:54.010Z,46.51
2022-08-16T23:16:33.470Z,46.37
2022-08-16T23:19:05.428Z,45.80
2022-08-16T23:21:34.691Z,46.11
2022-08-16T23:24:02.753Z,46.14
2022-08-16T23:26:36.328Z,46.18
2022-08-16T23:29:23.333Z,46.60
2022-08-16T23:31:55.987Z,46.30
2022-08-16T23:34:24.121Z,46.09
2022-08-16T23:36:52.532Z,45.95
2022-08-16T23:39:20.060Z,46.10
2022-08-16T23:41:47.543Z,45.83
2022-08-16T23:44:55.625Z,46.06
2022-08-16T23:47:02.776Z,45.79
2022-08-16T23:49:58.908Z,45.55
2022-08-16T23:52:19.182Z,45.44
2022-08-16T23:55:07.651Z,45.68
2022-08-16T23:57:35.541Z,45.56
